Time;durP1;ratioP1;P1;durP2;ratioP2;P2;SDS_P1;SDS_P2;PMS_P1;PMS_P2;Temp;Humidity;BMP_temperature;BMP_pressure;BME280_temperature;BME280_humidity;BME280_pressure;Samples;Min_cycle;Max_cycle;Signal;HPM_P1;HPM_P2
2022/06/13 00:02:07;;;;;;;6.35;3.40;;;;;;;-145.69;100.00;71213.38;4996102;28;20245;-79
2022/06/13 00:04:34;;;;;;;6.40;3.80;;;;;;;-145.69;100.00;71219.34;4995746;28;20899;-79
2022/06/13 00:07:01;;;;;;;5.63;3.55;;;;;;;-145.69;100.00;71229.28;4996288;28;20248;-79
2022/06/13 00:09:28;;;;;;;5.50;3.60;;;;;;;-145.69;100.00;71249.19;4996126;28;20260;-79
2022/06/13 00:11:55;;;;;;;6.80;3.90;;;;;;;-145.69;100.00;71245.19;4996102;28;20213;-79
2022/06/13 00:14:21;;;;;;;6.50;3.78;;;;;;;-145.69;100.00;71247.19;4996171;28;20259;-79
2022/06/13 00:16:49;;;;;;;7.28;3.60;;;;;;;-145.69;100.00;71247.19;4996207;28;20205;-79
2022/06/13 00:19:15;;;;;;;9.07;4.00;;;;;;;-145.69;100.00;71245.19;4995172;28;20201;-79
2022/06/13 00:21:42;;;;;;;7.50;3.80;;;;;;;-145.69;100.00;71235.25;4995538;28;20664;-79
2022/06/13 00:24:09;;;;;;;7.80;3.70;;;;;;;-145.69;100.00;71239.22;4995821;28;20303;-79
2022/06/13 00:26:37;;;;;;;8.15;3.53;;;;;;;-145.69;100.00;71237.25;4995821;28;20232;-79
2022/06/13 00:29:05;;;;;;;8.73;4.20;;;;;;;-145.69;100.00;71251.16;4996029;28;20209;-80
2022/06/13 00:31:31;;;;;;;6.03;4.60;;;;;;;-145.69;100.00;71243.22;4994854;28;20491;-80
2022/06/13 00:33:59;;;;;;;8.38;3.95;;;;;;;-145.69;100.00;71249.19;4995451;28;20197;-80
2022/06/13 00:36:25;;;;;;;6.60;3.75;;;;;;;-145.69;100.00;71259.13;4995752;28;20236;-80
2022/06/13 00:38:54;;;;;;;10.27;4.13;;;;;;;-145.69;100.00;71255.16;4996035;28;20208;-80
2022/06/13 00:41:24;;;;;;;5.13;3.50;;;;;;;-145.69;100.00;71245.19;4995954;28;20286;-80
2022/06/13 00:43:52;;;;;;;6.47;3.50;;;;;;;-145.69;100.00;71243.22;4995575;28;20695;-80
2022/06/13 00:46:21;;;;;;;5.68;3.33;;;;;;;-145.69;100.00;71249.19;4995641;28;20234;-80
2022/06/13 00:48:49;;;;;;;5.15;3.03;;;;;;;-145.69;100.00;71239.22;4995383;28;20290;-80
2022/06/13 00:51:18;;;;;;;4.32;2.72;;;;;;;-145.69;100.00;71247.19;4995553;28;20205;-80
2022/06/13 00:53:46;;;;;;;5.32;2.97;;;;;;;-145.69;100.00;71235.25;4995644;28;20205;-80
2022/06/13 00:56:15;;;;;;;6.65;3.45;;;;;;;-145.69;100.00;71235.25;4995715;28;20295;-80
2022/06/13 00:58:46;;;;;;;4.85;3.08;;;;;;;-145.69;100.00;71247.19;4995527;28;20209;-79
2022/06/13 01:01:14;;;;;;;6.80;2.97;;;;;;;-145.69;100.00;71239.22;4995149;28;20198;-80
2022/06/13 01:03:43;;;;;;;5.65;3.38;;;;;;;-145.69;100.00;71241.22;4995399;28;20283;-79
2022/06/13 01:06:10;;;;;;;4.95;3.30;;;;;;;-145.69;100.00;71239.22;4995158;28;20237;-79
2022/06/13 01:08:39;;;;;;;6.18;3.55;;;;;;;-145.69;100.00;71239.22;4995144;28;20659;-79
2022/06/13 01:14:21;;;;;;;4.38;3.22;;;;;;;-145.69;100.00;71241.22;4994867;28;20213;-80
2022/06/13 01:17:02;;;;;;;5.63;3.45;;;;;;;-145.69;100.00;71251.16;4994873;28;20256;-80
2022/06/13 01:20:13;;;;;;;4.45;3.50;;;;;;;-145.69;100.00;71249.19;4994964;28;20296;-80
2022/06/13 01:23:17;;;;;;;7.95;3.10;;;;;;;-145.69;100.00;71237.25;4915421;29;20227;-79
2022/06/13 01:26:35;;;;;;;4.95;3.22;;;;;;;-145.69;100.00;71245.19;4915885;29;20296;-79
2022/06/13 01:29:43;;;;;;;4.40;3.20;;;;;;;-145.69;100.00;71251.16;4934341;29;20218;-80
2022/06/13 01:32:20;;;;;;;10.52;4.05;;;;;;;-145.69;100.00;71239.22;4975379;28;20250;-79
2022/06/13 01:34:58;;;;;;;6.55;3.58;;;;;;;-145.69;100.00;71223.31;4977689;28;20198;-79
2022/06/13 01:37:39;;;;;;;6.93;3.90;;;;;;;-145.69;100.00;71227.28;4994633;28;20656;-79
2022/06/13 01:40:16;;;;;;;4.07;3.30;;;;;;;-145.69;100.00;71233.25;4994723;28;20212;-80
2022/06/13 01:42:53;;;;;;;4.95;3.10;;;;;;;-145.69;100.00;71227.28;4994626;28;20225;-80
2022/06/13 01:45:31;;;;;;;7.10;3.17;;;;;;;-145.69;100.00;71229.28;4994404;28;20252;-80
2022/06/13 01:48:05;;;;;;;5.10;2.95;;;;;;;-145.69;100.00;71239.22;4994406;28;20279;-79
2022/06/13 01:50:41;;;;;;;5.93;3.58;;;;;;;-145.69;100.00;71255.16;4993582;28;20592;-80
2022/06/13 01:53:15;;;;;;;4.93;3.42;;;;;;;-145.69;100.00;71249.19;4994275;28;20205;-80
2022/06/13 01:55:48;;;;;;;4.95;3.50;;;;;;;-145.69;100.00;71259.13;4994478;28;20285;-80
2022/06/13 01:58:22;;;;;;;6.75;4.20;;;;;;;-145.69;100.00;71263.09;4994210;28;20210;-80
2022/06/13 02:00:58;;;;;;;4.72;3.50;;;;;;;-145.69;100.00;71261.13;4993355;28;20591;-79
2022/06/13 02:03:32;;;;;;;8.55;3.65;;;;;;;-145.69;100.00;71257.13;4994109;28;20225;-80
2022/06/13 02:06:04;;;;;;;6.82;4.38;;;;;;;-145.69;100.00;71253.16;4994285;28;20209;-80
2022/06/13 02:08:35;;;;;;;5.82;3.88;;;;;;;-145.69;100.00;71263.09;4994078;28;20209;-80
2022/06/13 02:11:09;;;;;;;7.63;4.68;;;;;;;-145.69;100.00;71269.06;4994124;28;20201;-79
2022/06/13 02:13:39;;;;;;;6.38;4.28;;;;;;;-145.69;100.00;71267.09;4993855;28;20213;-79
2022/06/13 02:16:09;;;;;;;5.38;4.45;;;;;;;-145.69;100.00;71277.03;4994079;28;20260;-80
2022/06/13 02:18:45;;;;;;;8.63;4.20;;;;;;;-145.69;100.00;71279.03;4993988;28;20201;-79
2022/06/13 02:21:14;;;;;;;6.85;4.20;;;;;;;-145.69;100.00;71290.97;4993804;28;20722;-80
2022/06/13 02:23:47;;;;;;;5.50;4.07;;;;;;;-145.69;100.00;71294.94;4993712;28;20704;-79
2022/06/13 02:26:20;;;;;;;6.70;4.50;;;;;;;-145.69;100.00;71290.97;4992725;28;20467;-79
2022/06/13 02:28:52;;;;;;;5.28;4.30;;;;;;;-145.69;100.00;71290.97;4993820;28;20553;-80
2022/06/13 02:31:24;;;;;;;5.65;3.60;;;;;;;-145.69;100.00;71271.06;4993229;28;20255;-79
2022/06/13 02:33:57;;;;;;;7.22;4.53;;;;;;;-145.69;100.00;71265.09;4993882;28;20611;-80
2022/06/13 02:36:32;;;;;;;6.53;4.35;;;;;;;-145.69;100.00;71267.09;4993692;28;20732;-80
2022/06/13 02:39:02;;;;;;;6.82;4.78;;;;;;;-145.69;100.00;71269.06;4993514;28;20243;-80
2022/06/13 02:41:37;;;;;;;6.75;4.35;;;;;;;-145.69;100.00;71279.03;4993768;28;20775;-80
2022/06/13 02:44:09;;;;;;;7.63;3.60;;;;;;;-145.69;100.00;71283.00;4993585;28;20320;-79
2022/06/13 02:46:40;;;;;;;9.70;4.78;;;;;;;-145.69;100.00;71283.00;4999660;28;20287;-80
2022/06/13 02:49:15;;;;;;;14.55;6.85;;;;;;;-145.69;100.00;71285.00;5000051;28;20204;-80
2022/06/13 02:51:47;;;;;;;10.27;6.18;;;;;;;-145.69;100.00;71271.06;5000181;28;20205;-79
2022/06/13 02:54:20;;;;;;;15.48;6.57;;;;;;;-145.69;100.00;71267.09;5000091;28;20541;-79
2022/06/13 02:59:52;;;;;;;9.45;6.20;;;;;;;-145.69;100.00;71283.00;5000249;28;20216;-79
2022/06/13 03:02:25;;;;;;;15.77;6.07;;;;;;;-145.69;100.00;71286.97;5000129;28;20268;-80
2022/06/13 03:04:59;;;;;;;13.85;6.10;;;;;;;-145.69;100.00;71285.00;4999577;28;20639;-80
2022/06/13 03:07:35;;;;;;;10.85;5.05;;;;;;;-145.69;100.00;71290.97;5000100;28;20201;-79
2022/06/13 03:10:09;;;;;;;9.25;5.35;;;;;;;-145.69;100.00;71283.00;4999960;28;20209;-80
2022/06/13 03:12:40;;;;;;;10.82;5.22;;;;;;;-145.69;100.00;71273.06;5000175;28;20236;-80
2022/06/13 03:15:14;;;;;;;10.32;4.90;;;;;;;-145.69;100.00;71275.03;4999693;28;20221;-80
2022/06/13 03:17:46;;;;;;;8.60;4.68;;;;;;;-145.69;100.00;71279.03;5000160;28;20537;-80
2022/06/13 03:20:18;;;;;;;6.63;4.32;;;;;;;-145.69;100.00;71277.03;4999800;28;20205;-80
2022/06/13 03:22:49;;;;;;;6.15;3.53;;;;;;;-145.69;100.00;71283.00;5000264;28;20201;-80
2022/06/13 03:25:24;;;;;;;5.30;3.25;;;;;;;-145.69;100.00;71286.97;4999874;28;20201;-80
2022/06/13 03:27:55;;;;;;;9.43;3.00;;;;;;;-145.69;100.00;71283.00;5000122;28;20251;-80
2022/06/13 03:30:24;;;;;;;5.55;3.17;;;;;;;-145.69;100.00;71281.00;4999946;28;20259;-80
2022/06/13 03:35:44;;;;;;;6.20;3.53;;;;;;;-145.69;100.00;71283.00;4999080;28;20455;-80
2022/06/13 03:38:14;;;;;;;4.43;3.20;;;;;;;-145.69;100.00;71288.97;4999250;28;20212;-80
2022/06/13 03:40:46;;;;;;;6.60;4.00;;;;;;;-145.69;100.00;71286.97;4999356;28;20727;-81
2022/06/13 03:43:20;;;;;;;8.15;3.65;;;;;;;-145.69;100.00;71294.94;4999172;28;20208;-81
2022/06/13 03:45:52;;;;;;;7.22;3.42;;;;;;;-145.69;100.00;71290.97;4999534;28;20267;-80
2022/06/13 03:48:23;;;;;;;5.07;3.40;;;;;;;-145.69;100.00;71294.94;4980269;28;20206;-82
2022/06/13 03:50:56;;;;;;;7.25;3.58;;;;;;;-145.69;100.00;71302.91;4980305;28;20201;-82
2022/06/13 03:53:26;;;;;;;6.32;3.20;;;;;;;-145.69;100.00;71290.97;4980042;28;20206;-81
2022/06/13 03:55:58;;;;;;;8.27;3.28;;;;;;;-145.69;100.00;71286.97;4979416;28;20202;-81
2022/06/13 03:58:28;;;;;;;6.57;3.30;;;;;;;-145.69;100.00;71298.94;4976759;28;20206;-81
2022/06/13 04:01:01;;;;;;;8.00;3.60;;;;;;;-145.69;100.00;71304.91;4976905;28;20213;-81
2022/06/13 04:03:29;;;;;;;5.80;3.47;;;;;;;-145.69;100.00;71306.88;4976842;28;20766;-80
2022/06/13 04:06:00;;;;;;;6.00;3.20;;;;;;;-145.69;100.00;71298.94;4976985;28;20620;-81
2022/06/13 04:08:29;;;;;;;6.78;3.15;;;;;;;-145.69;100.00;71302.91;4976930;28;20248;-81
2022/06/13 04:11:09;;;;;;;6.23;3.20;;;;;;;-145.69;100.00;71302.91;4976125;28;20453;-81
2022/06/13 04:13:49;;;;;;;6.70;3.42;;;;;;;-145.69;100.00;71294.94;4976607;28;20642;-81
2022/06/13 04:16:31;;;;;;;6.65;2.97;;;;;;;-145.69;100.00;71294.94;4976824;28;20613;-81
2022/06/13 04:19:14;;;;;;;6.63;3.35;;;;;;;-145.69;100.00;71294.94;4976224;28;20661;-82
2022/06/13 04:21:49;;;;;;;9.18;3.63;;;;;;;-145.69;100.00;71298.94;4976678;28;20209;-82
2022/06/13 04:24:25;;;;;;;10.20;4.03;;;;;;;-145.69;100.00;71290.97;4976668;28;20230;-80
2022/06/13 04:27:00;;;;;;;12.25;3.40;;;;;;;-145.69;100.00;71286.97;4976423;28;20198;-82
2022/06/13 04:29:30;;;;;;;6.47;3.70;;;;;;;-145.69;100.00;71294.94;4976613;28;20201;-81
2022/06/13 04:32:02;;;;;;;10.85;3.88;;;;;;;-145.69;100.00;71294.94;4976348;28;20198;-81
2022/06/13 04:34:30;;;;;;;10.50;4.00;;;;;;;-145.69;100.00;71281.00;4976406;28;20262;-81
2022/06/13 04:36:59;;;;;;;8.27;3.53;;;;;;;-145.69;100.00;71286.97;4976075;28;20236;-81
2022/06/13 04:39:30;;;;;;;12.35;3.92;;;;;;;-145.69;100.00;71286.97;4976329;28;20605;-83
2022/06/13 04:42:00;;;;;;;7.47;3.33;;;;;;;-145.69;100.00;71286.97;4976021;28;20210;-82
2022/06/13 04:44:28;;;;;;;12.07;3.78;;;;;;;-145.69;100.00;71302.91;4975996;28;20229;-82
2022/06/13 04:46:57;;;;;;;11.82;3.70;;;;;;;-145.69;100.00;71300.91;4984205;28;20356;-82
2022/06/13 04:49:28;;;;;;;11.23;3.63;;;;;;;-145.69;100.00;71318.81;4995727;28;20256;-82
2022/06/13 04:51:58;;;;;;;8.00;3.33;;;;;;;-145.69;100.00;71324.78;4995585;28;20205;-82
2022/06/13 04:54:31;;;;;;;8.48;3.80;;;;;;;-145.69;100.00;71318.81;4995534;28;20202;-83
2022/06/13 04:56:59;;;;;;;10.98;3.55;;;;;;;-145.69;100.00;71324.78;4995436;28;20205;-82
2022/06/13 04:59:27;;;;;;;6.80;3.60;;;;;;;-145.69;100.00;71330.75;4994826;28;20289;-82
2022/06/13 05:01:54;;;;;;;9.93;4.18;;;;;;;-145.69;100.00;71328.78;4995370;28;20255;-81
2022/06/13 05:04:24;;;;;;;10.02;3.92;;;;;;;-145.69;100.00;71342.69;4995116;28;20313;-82
2022/06/13 05:06:53;;;;;;;11.43;3.85;;;;;;;-145.69;100.00;71334.75;4995013;28;20247;-83
2022/06/13 05:09:25;;;;;;;12.73;3.65;;;;;;;-145.69;100.00;71330.75;4994012;28;20205;-82
2022/06/13 05:11:56;;;;;;;6.15;2.95;;;;;;;-145.69;100.00;71328.78;4994990;28;20252;-85
2022/06/13 05:14:26;;;;;;;8.65;3.78;;;;;;;-145.69;100.00;71334.75;4995031;28;20193;-83
2022/06/13 05:17:04;;;;;;;7.25;3.40;;;;;;;-145.69;100.00;71302.91;4995175;28;20206;-83
2022/06/13 05:19:42;;;;;;;4.97;3.05;;;;;;;-145.69;100.00;71277.03;4995101;28;20209;-83
2022/06/13 05:22:27;;;;;;;6.75;3.25;;;;;;;-145.69;100.00;71275.03;4994828;28;20205;-84
2022/06/13 05:25:20;;;;;;;8.70;3.53;;;;;;;-145.69;100.00;71296.94;4993789;28;20464;-83
2022/06/13 05:27:46;;;;;;;4.25;2.55;;;;;;;-145.69;100.00;71263.09;4984894;28;20548;-84
2022/06/13 05:30:15;;;;;;;7.55;2.80;;;;;;;-145.69;100.00;71253.16;4994573;28;20656;-83
2022/06/13 05:32:42;;;;;;;5.72;2.72;;;;;;;-145.69;100.00;71281.00;4975157;28;20261;-84
2022/06/13 05:35:13;;;;;;;6.53;3.08;;;;;;;-145.69;100.00;71338.72;4975360;28;20202;-82
2022/06/13 05:37:40;;;;;;;9.23;3.10;;;;;;;-145.69;100.00;71324.78;4975345;28;20205;-84
2022/06/13 05:40:13;;;;;;;7.47;3.25;;;;;;;-145.69;100.00;71322.81;4975054;28;20203;-84
2022/06/13 05:42:39;;;;;;;10.20;3.00;;;;;;;-145.69;100.00;71306.88;4994000;28;20592;-85
2022/06/13 05:45:07;;;;;;;6.93;3.33;;;;;;;-145.69;100.00;71304.91;4993948;28;20237;-83
2022/06/13 05:47:33;;;;;;;9.75;3.17;;;;;;;-145.69;100.00;71324.78;4993827;28;20233;-81
2022/06/13 05:49:59;;;;;;;7.10;2.92;;;;;;;-145.69;100.00;71330.75;4994554;28;20202;-82
2022/06/13 05:52:26;;;;;;;7.20;3.05;;;;;;;-145.69;100.00;71324.78;4994264;28;20561;-82
2022/06/13 05:54:52;;;;;;;7.35;2.97;;;;;;;-145.69;100.00;71306.88;4994266;28;20259;-81
2022/06/13 05:57:20;;;;;;;8.88;3.10;;;;;;;-145.69;100.00;71316.84;4994310;28;20205;-84
2022/06/13 05:59:46;;;;;;;5.78;2.80;;;;;;;-145.69;100.00;71300.91;4993949;28;20444;-82
2022/06/13 06:02:13;;;;;;;9.57;3.30;;;;;;;-145.69;100.00;71302.91;4994001;28;20264;-84
2022/06/13 06:04:39;;;;;;;7.32;3.08;;;;;;;-145.69;100.00;71296.94;4993907;28;20224;-82
2022/06/13 06:07:06;;;;;;;10.23;3.80;;;;;;;-145.69;100.00;71302.91;4994229;28;20731;-83
2022/06/13 06:09:32;;;;;;;8.20;3.05;;;;;;;-145.69;100.00;71310.84;4993856;28;20205;-84
2022/06/13 06:11:58;;;;;;;15.18;3.33;;;;;;;-145.69;100.00;71302.91;4994116;28;20198;-84
2022/06/13 06:14:26;;;;;;;8.00;3.38;;;;;;;-145.69;100.00;71326.78;4993731;28;20749;-82
2022/06/13 06:16:53;;;;;;;7.10;2.75;;;;;;;-145.69;100.00;71324.78;4994413;28;20557;-86
2022/06/13 06:19:19;;;;;;;10.85;2.85;;;;;;;-145.69;100.00;71314.84;4992798;28;20686;-86
2022/06/13 06:21:46;;;;;;;4.35;2.60;;;;;;;-145.69;100.00;71269.06;4993749;28;20201;-84
2022/06/13 06:24:13;;;;;;;6.95;2.65;;;;;;;-145.69;100.00;71231.28;4993842;28;20228;-85
2022/06/13 06:26:39;;;;;;;5.75;2.65;;;;;;;-145.69;100.00;71229.28;4993778;28;20263;-83
2022/06/13 06:29:05;;;;;;;9.07;3.20;;;;;;;-145.69;100.00;71247.19;4993719;28;20263;-83
2022/06/13 06:31:33;;;;;;;5.72;2.50;;;;;;;-145.69;100.00;71269.06;4993691;28;20197;-84
2022/06/13 06:34:00;;;;;;;6.45;2.63;;;;;;;-145.69;100.00;71231.28;4992953;28;20448;-82
2022/06/13 06:36:27;;;;;;;9.95;2.47;;;;;;;-145.69;100.00;71263.09;4993529;28;20209;-82
2022/06/13 06:38:53;;;;;;;5.95;2.40;;;;;;;-145.69;99.71;71227.28;4992937;28;20205;-84
2022/06/13 06:41:20;;;;;;;7.28;2.20;;;;;;;-145.69;98.98;71191.47;4993552;28;20201;-85
2022/06/13 06:43:46;;;;;;;8.23;2.22;;;;;;;-145.69;93.79;71103.94;4993487;28;20217;-84
2022/06/13 06:46:13;;;;;;;6.40;2.50;;;;;;;-145.69;90.29;71076.06;4993393;28;20229;-83
2022/06/13 06:48:41;;;;;;;7.50;2.30;;;;;;;-145.69;89.21;71048.22;4993364;28;20201;-82
2022/06/13 06:51:09;;;;;;;6.90;2.33;;;;;;;-145.69;88.78;71074.09;4993788;28;20236;-85
2022/06/13 07:01:45;;;;;;;7.15;2.45;;;;;;;-145.69;89.65;71251.16;4995314;28;20291;-83
2022/06/13 07:04:13;;;;;;;8.05;2.72;;;;;;;-145.69;94.33;71267.09;4996365;28;20243;-83
2022/06/13 07:06:40;;;;;;;6.75;2.53;;;;;;;-145.69;94.89;71292.94;4995967;28;20259;-85
2022/06/13 07:09:06;;;;;;;6.95;2.50;;;;;;;-145.69;97.51;71306.88;4993448;28;20213;-84
2022/06/13 07:14:19;;;;;;;11.23;2.72;;;;;;;-145.69;95.92;71241.22;4993649;28;20240;-82
2022/06/13 07:16:45;;;;;;;10.52;2.70;;;;;;;-145.69;93.29;71235.25;4993921;28;20201;-83
2022/06/13 07:19:13;;;;;;;7.22;2.40;;;;;;;-145.69;93.22;71235.25;4994094;28;20276;-85
2022/06/13 07:21:40;;;;;;;5.93;2.13;;;;;;;-145.69;97.98;71245.19;4993661;28;20206;-81
2022/06/13 07:24:06;;;;;;;6.30;2.30;;;;;;;-145.69;94.50;71207.38;4993138;28;20201;-83
2022/06/13 07:26:33;;;;;;;8.13;2.40;;;;;;;-145.69;93.16;71171.56;4993484;28;20206;-84
2022/06/13 07:29:00;;;;;;;7.05;2.63;;;;;;;-145.69;92.13;71133.78;4993388;28;20205;-85
2022/06/13 07:31:33;;;;;;;4.90;2.15;;;;;;;-145.69;89.99;71119.84;4993636;28;20561;-84
2022/06/13 07:34:00;;;;;;;5.97;2.30;;;;;;;-145.69;91.40;71147.69;4997051;28;20615;-83
2022/06/13 07:36:28;;;;;;;8.18;2.42;;;;;;;-145.69;91.28;71203.41;4997114;28;20259;-83
2022/06/13 07:38:54;;;;;;;11.73;2.35;;;;;;;-145.69;91.81;71183.50;4996889;28;20571;-86
2022/06/13 07:41:23;;;;;;;5.53;2.40;;;;;;;-145.69;89.82;71191.47;4996877;28;20255;-84
2022/06/13 07:43:52;;;;;;;9.03;2.50;;;;;;;-145.69;92.41;71207.38;4996582;28;20444;-85
2022/06/13 07:46:22;;;;;;;5.50;2.20;;;;;;;-145.69;94.31;71199.44;4996841;28;20245;-81
2022/06/13 07:48:49;;;;;;;7.50;2.58;;;;;;;-145.69;90.28;71149.69;4996403;28;20209;-81
2022/06/13 07:51:16;;;;;;;8.02;2.45;;;;;;;-145.69;88.13;71131.78;4996703;28;20293;-80
2022/06/13 07:53:44;;;;;;;7.88;2.83;;;;;;;-145.69;92.14;71149.69;4996675;28;20201;-82
2022/06/13 07:56:12;;;;;;;6.35;2.30;;;;;;;-145.69;93.72;71161.63;4996171;28;20664;-84
2022/06/13 07:58:41;;;;;;;8.98;3.45;;;;;;;-145.69;93.17;71167.59;4996549;28;20201;-81
2022/06/13 08:01:08;;;;;;;7.35;2.60;;;;;;;-145.69;93.48;71125.81;4996166;28;20201;-82
2022/06/13 08:03:35;;;;;;;9.15;3.05;;;;;;;-145.69;95.85;71111.88;4996435;28;20197;-82
2022/06/13 08:06:04;;;;;;;7.35;2.78;;;;;;;-145.69;88.98;71060.16;4996305;28;20233;-82
2022/06/13 08:08:31;;;;;;;5.05;2.47;;;;;;;-145.69;93.15;71084.03;4996159;28;20264;-85
2022/06/13 08:11:03;;;;;;;11.45;2.95;;;;;;;-145.69;82.65;70990.50;4996232;28;20207;-87
2022/06/13 08:13:30;;;;;;;5.90;2.90;;;;;;;-145.69;80.97;70960.66;4996259;28;20202;-82
2022/06/13 08:15:57;;;;;;;7.30;2.50;;;;;;;-145.69;83.88;71008.41;4996091;28;20271;-84
2022/06/13 08:18:24;;;;;;;7.13;2.60;;;;;;;-145.69;91.37;71097.97;4996139;28;20197;-85
2022/06/13 08:20:51;;;;;;;8.85;2.70;;;;;;;-145.69;85.63;71113.88;4995724;28;20197;-86
2022/06/13 08:23:20;;;;;;;7.68;2.70;;;;;;;-145.69;88.52;71161.63;4995963;28;20209;-87
2022/06/13 08:25:48;;;;;;;7.88;2.78;;;;;;;-145.69;89.14;71175.56;4995782;28;20324;-83
2022/06/13 08:28:16;;;;;;;6.90;2.63;;;;;;;-145.69;92.21;71129.78;4996244;28;20209;-86
2022/06/13 08:30:46;;;;;;;10.20;3.10;;;;;;;-145.69;82.50;71105.91;4995360;28;20604;-88
2022/06/13 08:33:12;;;;;;;5.53;2.60;;;;;;;-145.69;86.96;71131.78;4995846;28;20619;-82
2022/06/13 08:35:39;;;;;;;8.07;2.35;;;;;;;-145.69;75.04;71123.81;4995877;28;20612;-83
2022/06/13 08:38:07;;;;;;;8.73;2.33;;;;;;;-145.69;80.88;71107.91;4995658;28;20665;-82
2022/06/13 08:40:40;;;;;;;8.55;2.63;;;;;;;-145.69;78.88;71127.81;4995508;28;20236;-81
2022/06/13 08:43:21;;;;;;;8.55;2.90;;;;;;;-145.69;79.28;71068.13;4995538;28;20201;-84
2022/06/13 08:45:55;;;;;;;8.60;2.97;;;;;;;-145.69;67.02;71000.47;4995594;28;20225;-85
2022/06/13 08:48:29;;;;;;;5.85;2.38;;;;;;;-145.69;66.75;71034.28;4995867;28;20198;-84
2022/06/13 08:51:03;;;;;;;7.28;2.35;;;;;;;-145.69;71.60;71014.38;4995510;28;20651;-86
2022/06/13 08:53:35;;;;;;;10.07;2.58;;;;;;;-145.69;72.15;71076.06;4995459;28;20227;-85
2022/06/13 08:56:07;;;;;;;5.50;2.00;;;;;;;-145.69;74.09;71032.28;4995247;28;20652;-82
2022/06/13 08:58:37;;;;;;;7.05;2.45;;;;;;;-145.69;80.37;71052.19;4995350;28;20194;-82
2022/06/13 09:01:12;;;;;;;7.43;2.40;;;;;;;-145.69;76.56;71022.34;4995038;28;20198;-83
2022/06/13 09:03:45;;;;;;;9.98;2.60;;;;;;;-145.69;75.62;71072.09;4995343;28;20201;-84
2022/06/13 09:06:17;;;;;;;9.05;2.83;;;;;;;-145.69;76.63;71068.13;4995441;28;20230;-83
2022/06/13 09:08:52;;;;;;;7.50;2.30;;;;;;;-145.69;70.75;71093.97;4995282;28;20201;-85
2022/06/13 09:11:22;;;;;;;6.95;2.45;;;;;;;-145.69;77.74;70986.53;4995139;28;20659;-86
2022/06/13 09:13:56;;;;;;;6.38;2.63;;;;;;;-145.69;78.53;70871.13;4994444;28;20197;-84
2022/06/13 09:16:29;;;;;;;5.10;2.53;;;;;;;-145.69;65.69;70952.72;4995239;28;20664;-84
2022/06/13 09:19:01;;;;;;;14.05;2.97;;;;;;;-145.69;69.34;70984.53;4994839;28;20714;-81
2022/06/13 09:21:34;;;;;;;4.82;2.38;;;;;;;-145.69;72.15;70994.50;4995079;28;20213;-82
2022/06/13 09:24:09;;;;;;;4.80;2.28;;;;;;;-145.69;75.68;71056.16;4994785;28;20205;-81
2022/06/13 09:26:42;;;;;;;8.43;3.17;;;;;;;-145.69;77.98;71032.28;4994748;28;20320;-84
2022/06/13 09:29:14;;;;;;;9.45;2.47;;;;;;;-145.69;72.54;71038.25;4994550;28;20648;-84
2022/06/13 09:31:45;;;;;;;11.25;2.60;;;;;;;-145.69;69.76;71008.41;4995131;28;20295;-79
2022/06/13 09:34:14;;;;;;;9.25;3.08;;;;;;;-145.69;73.71;70962.66;4994606;28;20664;-87
2022/06/13 09:36:47;;;;;;;8.05;2.25;;;;;;;-145.69;62.13;70912.91;4994665;28;20209;-85
2022/06/13 09:39:15;;;;;;;7.50;2.60;;;;;;;-145.69;64.54;70916.91;4994371;28;20443;-83
2022/06/13 09:42:07;;;;;;;38.15;4.22;;;;;;;-145.69;66.51;70974.59;4994198;28;20194;-84
2022/06/13 09:45:00;;;;;;;6.32;2.28;;;;;;;-145.69;68.10;70952.72;4994505;28;20572;-83
2022/06/13 09:47:39;;;;;;;6.88;2.10;;;;;;;-145.69;62.67;70964.66;4994426;28;20237;-86
2022/06/13 09:50:17;;;;;;;3.28;1.83;;;;;;;-145.69;62.27;70912.91;4994536;28;20247;-83
2022/06/13 09:52:52;;;;;;;5.85;2.40;;;;;;;-145.69;64.18;70904.97;4994410;28;20205;-85
2022/06/13 09:55:25;;;;;;;7.93;2.58;;;;;;;-145.69;63.64;70881.09;4992876;28;20436;-83
2022/06/13 09:58:05;;;;;;;9.18;3.00;;;;;;;-145.69;68.64;70984.53;4994344;28;20201;-81
2022/06/13 10:00:39;;;;;;;17.10;3.00;;;;;;;-145.69;65.84;70982.56;4994214;28;20201;-82
2022/06/13 10:03:20;;;;;;;8.23;1.85;;;;;;;-145.69;62.03;70982.56;4994084;28;20202;-83
2022/06/13 10:05:51;;;;;;;6.68;2.10;;;;;;;-145.69;66.51;70996.47;4993724;28;20276;-80
2022/06/13 10:08:36;;;;;;;232.48;14.40;;;;;;;-145.69;68.61;70996.47;4994075;28;20688;-80
2022/06/13 10:11:10;;;;;;;10.40;2.72;;;;;;;-145.69;66.74;71036.28;4994223;28;20209;-80
2022/06/13 10:13:49;;;;;;;9.13;2.40;;;;;;;-145.69;65.29;71064.13;4994049;28;20232;-79
2022/06/13 10:16:24;;;;;;;5.45;2.22;;;;;;;-145.69;66.66;71016.38;4994219;28;20193;-83
2022/06/13 10:19:09;;;;;;;7.72;2.45;;;;;;;-145.69;63.27;70964.66;4994054;28;20200;-78
2022/06/13 10:21:42;;;;;;;4.60;2.00;;;;;;;-145.69;64.41;70881.09;4993651;28;20205;-83
2022/06/13 10:24:19;;;;;;;6.47;1.90;;;;;;;-145.69;63.51;70837.31;4991929;28;20201;-81
2022/06/13 10:26:55;;;;;;;6.95;2.45;;;;;;;-145.69;59.70;70908.94;4993082;28;20695;-80
2022/06/13 10:29:49;;;;;;;11.45;1.95;;;;;;;-145.69;57.19;70978.56;4993701;28;20205;-80
2022/06/13 10:32:27;;;;;;;7.50;2.13;;;;;;;-145.69;57.99;70972.59;4991918;28;20205;-79
2022/06/13 10:35:07;;;;;;;6.20;2.10;;;;;;;-145.69;60.63;70992.50;4993077;28;20236;-78
2022/06/13 10:37:46;;;;;;;8.90;2.35;;;;;;;-145.69;63.77;71030.31;4993012;28;20193;-79
2022/06/13 10:40:14;;;;;;;10.70;2.25;;;;;;;-145.69;61.24;71020.34;4993336;28;20255;-78
2022/06/13 10:42:40;;;;;;;5.70;1.95;;;;;;;-145.69;65.11;71056.16;4993125;28;20207;-78
2022/06/13 10:45:10;;;;;;;6.15;2.15;;;;;;;-145.69;61.04;71044.22;4992949;28;20206;-79
2022/06/13 10:47:42;;;;;;;5.60;1.70;;;;;;;-145.69;54.96;71044.22;4993290;28;20373;-79
2022/06/13 10:50:13;;;;;;;5.70;1.90;;;;;;;-145.69;57.53;71016.38;4993520;28;20198;-80
2022/06/13 10:52:46;;;;;;;5.55;1.77;;;;;;;-145.69;52.43;71032.28;4993401;28;20205;-79
2022/06/13 10:55:17;;;;;;;5.35;1.63;;;;;;;-145.69;54.86;71072.09;4993175;28;20204;-80
2022/06/13 10:57:51;;;;;;;6.50;1.60;;;;;;;-145.69;48.02;71068.13;4990255;28;20231;-78
2022/06/13 11:00:23;;;;;;;2.70;1.20;;;;;;;-145.69;48.38;71014.38;4993257;28;20436;-78
2022/06/13 11:02:50;;;;;;;3.63;1.35;;;;;;;-145.69;43.92;71018.38;4993485;28;20205;-77
2022/06/13 11:05:20;;;;;;;3.22;1.25;;;;;;;-145.69;43.06;71056.16;4992842;28;20258;-78
2022/06/13 11:07:51;;;;;;;4.15;1.17;;;;;;;-145.69;45.21;71022.34;4997034;28;20217;-79
2022/06/13 11:10:34;;;;;;;3.40;1.45;;;;;;;-145.69;45.57;70972.59;4997076;28;20224;-79
2022/06/13 11:13:04;;;;;;;3.58;1.27;;;;;;;-145.69;47.03;70980.56;4997267;28;20227;-79
2022/06/13 11:24:14;;;;;;;4.00;1.27;;;;;;;-145.69;45.89;70966.63;4996893;28;20275;-80
2022/06/13 11:29:29;;;;;;;5.28;1.50;;;;;;;-145.69;45.37;70932.81;4997059;28;20667;-79
2022/06/13 11:31:57;;;;;;;2.50;1.00;;;;;;;-145.69;48.29;70918.88;4997141;28;20197;-78
2022/06/13 11:34:30;;;;;;;2.88;1.10;;;;;;;-145.69;41.64;70942.75;4994215;28;20656;-80
2022/06/13 11:37:01;;;;;;;5.63;1.20;;;;;;;-145.69;39.70;70916.91;4996666;28;20193;-80
2022/06/13 11:39:33;;;;;;;3.03;1.10;;;;;;;-145.69;44.38;70916.91;4996729;28;20224;-81
2022/06/13 11:42:00;;;;;;;4.95;1.33;;;;;;;-145.69;42.33;70865.16;4996690;28;20252;-81
2022/06/13 11:44:27;;;;;;;3.63;1.40;;;;;;;-145.69;42.92;70930.81;4996753;28;20206;-79
2022/06/13 11:47:00;;;;;;;2.90;1.20;;;;;;;-145.69;42.13;70879.09;4996553;28;20296;-79
2022/06/13 11:49:34;;;;;;;3.63;1.27;;;;;;;-145.69;46.61;70875.13;4996775;28;20205;-81
2022/06/13 11:53:35;;;;;;;1.67;1.02;;;;;;;-145.69;42.77;70837.31;4996155;28;20194;-80
2022/06/13 11:55:18;;;;;;;2.03;0.90;;;;;;;-145.69;42.70;70885.06;4996279;28;20201;-80
2022/06/13 11:57:51;;;;;;;2.15;0.88;;;;;;;-145.69;37.11;70843.28;4996353;28;20293;-79
2022/06/13 12:00:25;;;;;;;2.88;1.10;;;;;;;-145.69;40.53;70865.16;4996370;28;20297;-82
2022/06/13 12:02:55;;;;;;;1.67;0.90;;;;;;;-145.69;40.62;70867.16;4996326;28;20197;-80
2022/06/13 12:05:28;;;;;;;4.18;1.33;;;;;;;-145.69;41.50;70847.25;4996302;28;20573;-81